createdAt,value
2023-02-28T12:06:55.988Z,4.97
2023-02-28T12:07:57.004Z,4.93
2023-02-28T12:08:56.958Z,4.86
2023-02-28T12:09:56.963Z,4.87
2023-02-28T12:10:56.931Z,4.93
2023-02-28T12:11:56.924Z,4.99
2023-02-28T12:12:56.905Z,5.09
2023-02-28T12:13:56.916Z,5.17
2023-02-28T12:14:56.890Z,5.26
2023-02-28T12:15:57.030Z,5.19
2023-02-28T12:16:56.859Z,5.20
2023-02-28T12:17:56.903Z,5.14
2023-02-28T12:18:56.855Z,5.14
2023-02-28T12:19:56.832Z,5.05
2023-02-28T12:20:56.815Z,4.99
2023-02-28T12:21:56.814Z,4.97
2023-02-28T12:22:56.792Z,5.01
2023-02-28T12:23:56.795Z,5.12
2023-02-28T12:24:56.776Z,5.12
2023-02-28T12:25:56.765Z,5.19
2023-02-28T12:26:56.749Z,5.30
2023-02-28T12:27:56.767Z,5.41
2023-02-28T12:28:56.741Z,5.48
2023-02-28T12:29:59.455Z,5.49
2023-02-28T12:30:56.703Z,5.48
2023-02-28T12:31:56.890Z,5.44
2023-02-28T12:32:56.698Z,5.35
2023-02-28T12:33:56.688Z,5.38
2023-02-28T12:34:56.657Z,5.38
2023-02-28T12:35:56.882Z,5.37
2023-02-28T12:36:56.636Z,5.35
2023-02-28T12:37:56.628Z,5.29
2023-02-28T12:38:56.636Z,5.17
2023-02-28T12:39:56.608Z,5.08
2023-02-28T12:40:56.591Z,5.04
2023-02-28T12:41:56.592Z,4.99
2023-02-28T12:42:56.568Z,5.04
2023-02-28T12:43:56.578Z,5.04
2023-02-28T12:44:56.545Z,5.11
2023-02-28T12:45:56.677Z,5.14
2023-02-28T12:46:56.523Z,5.12
2023-02-28T12:47:56.518Z,5.23
2023-02-28T12:48:56.531Z,5.29
2023-02-28T12:49:56.497Z,5.27
2023-02-28T12:50:56.478Z,5.29
2023-02-28T12:51:56.473Z,5.40
2023-02-28T12:52:56.465Z,5.35
2023-02-28T12:53:56.472Z,5.35
2023-02-28T12:54:56.441Z,5.38
2023-02-28T12:55:56.432Z,5.42
2023-02-28T12:56:56.414Z,5.42
2023-02-28T12:57:56.410Z,5.38
2023-02-28T12:58:56.390Z,5.38
2023-02-28T12:59:56.397Z,5.42
2023-02-28T13:00:56.470Z,5.49
2023-02-28T13:01:56.365Z,5.48
2023-02-28T13:02:56.348Z,5.51
2023-02-28T13:03:56.341Z,5.48
2023-02-28T13:04:56.332Z,5.44
2023-02-28T13:05:56.317Z,5.35
2023-02-28T13:06:56.303Z,5.40
2023-02-28T13:07:56.303Z,5.47
2023-02-28T13:08:56.280Z,5.48
2023-02-28T13:09:56.298Z,5.55
2023-02-28T13:10:56.260Z,5.62
